PDT,Max TemperatureF,Mean TemperatureF,Min TemperatureF,Max Dew PointF,MeanDew PointF,Min DewpointF,Max Humidity, Mean Humidity, Min Humidity, Max Sea Level PressureIn, Mean Sea Level PressureIn, Min Sea Level PressureIn, Max VisibilityMiles, Mean VisibilityMiles, Min VisibilityMiles, Max Wind SpeedMPH, Mean Wind SpeedMPH, Max Gust SpeedMPH,PrecipitationIn, CloudCover, Events, WindDirDegrees
2013-8-1,61,54,46,52,47,38,100,83,42,30.13,29.93,29.80,10,7,0,18,6,26,0.00,6,Fog-Rain,132
2013-8-2,48,45,44,47,45,44,100,100,93,30.19,30.06,29.80,10,1,0,8,3,,0.00,7,Fog-Rain,206
2013-8-3,55,48,42,52,46,43,100,91,74,30.24,30.12,29.99,10,6,0,7,4,,0.00,6,Fog-Rain,174
2013-8-4,68,57,48,49,46,44,86,67,50,30.22,29.98,29.91,10,10,10,6,2,,0.00,2,,166
2013-8-5,69,62,55,48,45,42,72,57,43,29.90,29.88,29.85,10,10,10,10,4,20,0.00,0,,295
2013-8-6,72,64,57,45,42,37,58,45,34,29.92,29.88,29.85,10,10,10,6,3,,0.00,0,,304
2013-8-7,73,66,61,44,39,35,45,38,27,29.86,29.84,29.82,10,10,10,8,3,,0.00,0,,293
2013-8-8,75,66,60,42,39,35,45,37,29,29.88,29.85,29.82,10,10,10,6,2,,0.00,0,,346
2013-8-9,75,66,55,54,48,41,74,56,42,29.92,29.84,29.79,10,10,9,14,7,32,0.03,1,Rain,116
2013-8-10,75,65,55,52,43,37,69,45,29,29.90,29.86,29.82,10,10,10,10,4,17,0.02,1,Rain,109
2013-8-11,73,62,52,51,47,40,89,54,38,29.93,29.88,29.83,10,10,5,7,3,,0.11,1,Rain,302
2013-8-12,73,64,55,52,46,41,70,54,39,29.97,29.92,29.89,10,10,10,7,2,,0.01,3,,259
2013-8-13,71,64,57,51,44,38,60,50,41,29.99,29.96,29.91,10,10,10,7,3,,0.00,1,,155
2013-8-14,75,67,59,50,41,35,58,40,28,29.94,29.89,29.83,10,10,10,9,4,,0.00,0,,143
2013-8-15,77,68,60,45,41,34,51,39,29,29.88,29.84,29.80,10,10,10,8,5,,0.00,0,,307
2013-8-16,73,66,59,50,46,42,58,51,45,29.92,29.88,29.83,10,10,10,8,6,,0.00,0,Rain,321
2013-8-17,69,60,51,51,48,45,93,66,48,29.97,29.93,29.90,10,10,3,10,5,,0.12,1,Rain,230
2013-8-18,68,61,54,47,44,40,75,57,42,29.98,29.94,29.91,10,10,10,9,7,20,0.00,0,,237
2013-8-19,68,60,54,46,42,39,62,52,42,29.93,29.90,29.88,10,10,10,13,7,23,0.00,0,,247
2013-8-20,66,60,53,43,36,26,66,46,25,29.96,29.92,29.87,10,10,10,9,5,17,0.00,2,,264
2013-8-21,72,62,54,34,29,25,40,30,18,29.99,29.95,29.92,10,10,10,6,2,,0.00,0,,358
2013-8-22,72,65,55,44,36,28,62,36,27,29.91,29.86,29.78,10,10,3,9,5,16,0.05,4,Rain,139
2013-8-23,66,59,54,49,46,41,77,63,51,30.03,29.77,29.73,10,10,10,12,3,,0.00,4,Rain,208
2013-8-24,73,62,52,47,44,36,80,56,27,29.80,29.75,29.69,10,10,10,9,4,20,0.00,1,,221
2013-8-25,72,60,51,50,45,40,96,60,36,30.07,29.82,29.75,10,9,2,7,3,,0.02,3,Rain,322
2013-8-26,64,54,44,50,45,42,100,81,48,30.16,29.97,29.81,10,6,0,14,6,37,0.45,3,Fog-Rain,203
2013-8-27,70,62,53,47,43,36,69,51,34,29.89,29.84,29.76,10,10,10,6,2,,0.00,0,,29
2013-8-28,70,64,59,50,44,39,60,50,41,29.88,29.81,29.73,10,10,10,10,6,20,0.00,1,,150
2013-8-29,72,62,53,52,47,43,83,61,45,30.23,29.91,29.83,10,10,2,17,7,39,0.08,1,Rain,185
2013-8-30,62,56,51,47,45,42,83,68,56,30.29,30.05,29.94,10,10,8,10,4,16,0.00,4,,278
2013-8-31,71,61,52,45,41,39,66,50,33,30.02,29.96,29.88,10,10,10,6,2,,0.00,0,,205